createdAt,value
2022-12-25T00:01:18.859Z,18.60
2022-12-25T00:03:53.917Z,18.10
2022-12-25T00:06:28.021Z,17.30
2022-12-25T00:08:59.631Z,19.40
2022-12-25T00:11:31.278Z,17.60
2022-12-25T00:14:02.940Z,17.20
2022-12-25T00:16:34.885Z,15.80
2022-12-25T00:19:06.605Z,17.30
2022-12-25T00:21:38.293Z,17.80
2022-12-25T00:24:11.156Z,17.40
2022-12-25T00:26:42.752Z,19.40
2022-12-25T00:29:16.363Z,23.30
2022-12-25T00:34:18.365Z,20.10
2022-12-25T00:36:52.613Z,21.40
2022-12-25T00:39:24.557Z,23.70
2022-12-25T00:42:13.813Z,23.80
2022-12-25T00:44:45.387Z,22.20
2022-12-25T00:47:17.787Z,24.40
2022-12-25T00:49:49.646Z,22.00
2022-12-25T00:52:21.309Z,23.10
2022-12-25T00:54:52.956Z,23.80
2022-12-25T00:57:24.710Z,22.60
2022-12-25T00:59:56.334Z,24.70
2022-12-25T01:02:28.011Z,26.80
2022-12-25T01:05:00.023Z,26.60
2022-12-25T01:07:31.668Z,25.50
2022-12-25T01:10:21.107Z,28.30
2022-12-25T01:12:53.699Z,28.40
2022-12-25T01:15:25.322Z,27.80
2022-12-25T01:17:56.958Z,25.10
2022-12-25T01:20:28.656Z,23.40
2022-12-25T01:23:00.320Z,23.90
2022-12-25T01:25:32.217Z,22.60
2022-12-25T01:28:03.903Z,21.70
2022-12-25T01:30:36.485Z,19.80
2022-12-25T01:33:08.125Z,19.80
2022-12-25T01:35:42.831Z,18.80
2022-12-25T01:38:14.699Z,19.30
2022-12-25T01:40:46.354Z,18.30
2022-12-25T01:43:25.892Z,16.40
2022-12-25T01:45:57.844Z,16.20
2022-12-25T01:48:33.750Z,17.70
2022-12-25T01:51:08.287Z,19.90
2022-12-25T01:53:40.147Z,21.40
2022-12-25T01:56:12.520Z,18.90
2022-12-25T01:58:44.494Z,20.60
2022-12-25T02:01:16.720Z,20.20
2022-12-25T02:03:48.602Z,19.70
2022-12-25T02:06:20.248Z,19.70
2022-12-25T02:08:55.125Z,21.20
2022-12-25T02:11:44.193Z,20.30
2022-12-25T02:14:19.354Z,20.00
2022-12-25T02:16:58.956Z,21.10
2022-12-25T02:20:03.994Z,20.10
2022-12-25T02:22:47.932Z,19.30
2022-12-25T02:28:14.776Z,19.10
2022-12-25T02:30:53.396Z,19.40
2022-12-25T02:33:47.221Z,17.90
2022-12-25T02:36:23.593Z,17.30
2022-12-25T02:39:19.298Z,17.80
2022-12-25T02:41:54.786Z,16.70
2022-12-25T02:44:47.086Z,16.80
2022-12-25T02:47:32.923Z,16.20
2022-12-25T02:50:28.431Z,12.90
2022-12-25T02:53:20.118Z,13.30
2022-12-25T02:56:11.790Z,12.60
2022-12-25T02:59:04.190Z,13.70
2022-12-25T03:01:56.128Z,13.30
2022-12-25T03:04:49.273Z,15.10
2022-12-25T03:07:28.081Z,15.10
2022-12-25T03:10:24.232Z,15.70
2022-12-25T03:13:00.284Z,16.90
2022-12-25T03:15:50.871Z,16.00
2022-12-25T03:18:25.354Z,15.90
2022-12-25T03:21:15.187Z,17.10
2022-12-25T03:24:09.748Z,15.40
2022-12-25T03:26:56.975Z,14.70
2022-12-25T03:30:07.379Z,15.10
2022-12-25T03:32:44.479Z,15.40
2022-12-25T03:35:26.147Z,14.70
2022-12-25T03:38:31.473Z,14.70
2022-12-25T03:41:41.169Z,15.20
2022-12-25T03:44:39.217Z,14.50
2022-12-25T03:47:33.786Z,17.00
2022-12-25T03:50:31.605Z,16.20
2022-12-25T03:53:24.965Z,15.30
2022-12-25T03:56:15.584Z,15.30
2022-12-25T03:59:22.979Z,15.30
2022-12-25T04:02:13.337Z,14.60
2022-12-25T04:05:02.919Z,14.10
2022-12-25T04:07:52.630Z,14.20
2022-12-25T04:10:44.192Z,15.40
2022-12-25T04:13:33.766Z,15.50
2022-12-25T04:16:23.975Z,15.20
2022-12-25T04:19:13.611Z,15.10
2022-12-25T04:22:04.944Z,15.60
2022-12-25T04:24:54.435Z,16.00
2022-12-25T04:27:43.946Z,16.10
2022-12-25T04:30:33.604Z,16.20
2022-12-25T04:33:23.346Z,15.80
2022-12-25T04:36:12.265Z,16.80
2022-12-25T04:38:44.015Z,17.70
2022-12-25T04:41:16.033Z,16.90
2022-12-25T04:43:47.774Z,16.60
2022-12-25T04:46:23.574Z,14.80
2022-12-25T04:48:55.264Z,15.70
2022-12-25T04:51:28.097Z,15.50
2022-12-25T04:53:59.736Z,15.30
2022-12-25T04:56:31.412Z,15.00
2022-12-25T04:59:04.282Z,16.30
2022-12-25T05:01:36.330Z,15.20
2022-12-25T05:04:10.080Z,16.50
2022-12-25T05:06:49.283Z,15.90
2022-12-25T05:09:22.181Z,16.00
2022-12-25T05:11:53.837Z,15.90
2022-12-25T05:14:25.540Z,15.70
2022-12-25T05:16:57.362Z,15.00
2022-12-25T05:19:29.512Z,16.90
2022-12-25T05:22:01.114Z,16.80
2022-12-25T05:24:37.686Z,16.30
2022-12-25T05:27:09.497Z,14.60
2022-12-25T05:29:41.134Z,14.70
2022-12-25T05:32:12.940Z,15.30
2022-12-25T05:34:45.927Z,14.60
2022-12-25T05:37:17.919Z,15.20
2022-12-25T05:39:54.965Z,15.80
2022-12-25T05:42:29.759Z,14.30
2022-12-25T05:45:03.944Z,15.90
2022-12-25T05:47:35.774Z,14.80
2022-12-25T05:50:10.314Z,14.00
2022-12-25T05:52:45.090Z,14.30
2022-12-25T05:55:17.039Z,13.90
2022-12-25T05:57:48.693Z,13.70
2022-12-25T06:00:23.621Z,14.40
2022-12-25T06:02:56.938Z,14.40
2022-12-25T06:05:32.002Z,14.10
2022-12-25T06:08:03.678Z,13.40
2022-12-25T06:10:37.253Z,14.60
2022-12-25T06:13:08.981Z,15.90
2022-12-25T06:15:44.597Z,15.20
2022-12-25T06:18:18.192Z,15.30
2022-12-25T06:23:20.221Z,15.30
2022-12-25T06:25:56.859Z,15.60
2022-12-25T06:28:29.784Z,14.00
2022-12-25T06:31:08.670Z,14.10
2022-12-25T06:33:43.592Z,14.00
2022-12-25T06:36:17.775Z,14.50
2022-12-25T06:38:50.873Z,13.80
2022-12-25T06:41:27.183Z,13.80
2022-12-25T06:44:03.607Z,14.20
2022-12-25T06:46:36.257Z,14.60
2022-12-25T06:49:12.323Z,13.20
2022-12-25T06:51:44.173Z,14.90
2022-12-25T06:54:16.197Z,13.80
2022-12-25T06:56:48.684Z,14.20
2022-12-25T06:59:25.424Z,14.60
2022-12-25T07:01:58.673Z,14.80
2022-12-25T07:04:35.645Z,15.90
2022-12-25T07:07:09.859Z,15.10
2022-12-25T07:09:45.911Z,13.80
2022-12-25T07:12:21.199Z,15.60
2022-12-25T07:14:55.758Z,14.40
2022-12-25T07:17:27.412Z,14.20
2022-12-25T07:20:00.283Z,13.30
2022-12-25T07:22:33.585Z,13.50
2022-12-25T07:25:05.829Z,13.60
2022-12-25T07:27:37.493Z,14.20
2022-12-25T07:30:11.987Z,14.70
2022-12-25T07:32:49.877Z,15.60
2022-12-25T07:35:21.838Z,15.70
2022-12-25T07:37:53.519Z,14.70
2022-12-25T07:40:25.249Z,16.30
2022-12-25T07:42:56.903Z,16.50
2022-12-25T07:45:28.577Z,17.10
2022-12-25T07:48:05.218Z,17.30
2022-12-25T07:50:38.033Z,16.80
2022-12-25T07:53:09.850Z,17.00
2022-12-25T07:55:41.454Z,16.60
2022-12-25T07:58:16.071Z,16.60
2022-12-25T08:00:51.629Z,15.70
2022-12-25T08:03:23.701Z,16.50
2022-12-25T08:05:55.657Z,17.40
2022-12-25T08:08:27.279Z,18.90
2022-12-25T08:10:59.035Z,19.30
2022-12-25T08:13:33.402Z,19.60
2022-12-25T08:16:07.853Z,20.40
2022-12-25T08:18:40.321Z,20.60
2022-12-25T08:21:15.204Z,22.90
2022-12-25T08:23:48.749Z,21.70
2022-12-25T08:28:53.596Z,25.00
2022-12-25T08:31:27.837Z,23.20
2022-12-25T08:34:00.699Z,29.50
2022-12-25T08:36:32.655Z,29.70
2022-12-25T08:39:04.531Z,29.30
2022-12-25T08:41:36.879Z,29.50
2022-12-25T08:44:08.800Z,28.20
2022-12-25T08:46:40.984Z,26.20
2022-12-25T08:49:12.653Z,26.90
2022-12-25T08:51:46.857Z,25.90
2022-12-25T08:54:18.653Z,25.30
2022-12-25T08:56:51.354Z,25.70
2022-12-25T08:59:23.344Z,25.30
2022-12-25T09:01:55.096Z,25.80
2022-12-25T09:04:27.057Z,24.50
2022-12-25T09:06:58.667Z,23.80
2022-12-25T09:09:31.541Z,23.40
2022-12-25T09:12:03.184Z,23.30
2022-12-25T09:14:34.913Z,23.10
2022-12-25T09:17:06.926Z,24.10
2022-12-25T09:19:38.712Z,25.00
2022-12-25T09:22:10.370Z,23.10
2022-12-25T09:24:43.760Z,23.90
2022-12-25T09:27:15.489Z,24.10
2022-12-25T09:29:47.135Z,22.00
2022-12-25T09:32:18.827Z,20.60
2022-12-25T09:34:51.403Z,20.60
2022-12-25T09:37:23.171Z,20.30
2022-12-25T09:39:54.763Z,19.20
2022-12-25T09:42:31.362Z,18.90
2022-12-25T09:45:06.926Z,18.20
2022-12-25T09:47:41.256Z,20.40
2022-12-25T09:50:18.283Z,17.60
2022-12-25T09:52:56.326Z,18.40
2022-12-25T09:55:31.713Z,17.70
2022-12-25T09:58:09.845Z,18.60
2022-12-25T10:00:45.254Z,16.20
2022-12-25T10:03:36.907Z,16.20
2022-12-25T10:06:18.047Z,18.00
2022-12-25T10:09:04.571Z,20.60
2022-12-25T10:11:52.595Z,18.10
2022-12-25T10:14:32.824Z,19.60
2022-12-25T10:17:18.722Z,17.20
2022-12-25T10:19:58.010Z,15.20
2022-12-25T10:22:35.795Z,16.60
2022-12-25T10:25:16.031Z,16.30
2022-12-25T10:27:51.092Z,15.90
2022-12-25T10:30:25.463Z,14.70
2022-12-25T10:32:59.043Z,13.80
2022-12-25T10:35:32.817Z,15.00
2022-12-25T10:38:08.011Z,16.90
2022-12-25T10:40:53.033Z,14.90
2022-12-25T10:43:31.674Z,17.60
2022-12-25T10:46:09.371Z,17.50
2022-12-25T10:48:43.835Z,18.30
2022-12-25T10:51:16.013Z,17.50
2022-12-25T10:53:47.720Z,18.90
2022-12-25T10:56:22.855Z,18.50
2022-12-25T10:59:04.696Z,16.70
2022-12-25T11:01:36.771Z,15.00
2022-12-25T11:04:16.462Z,15.10
2022-12-25T11:06:59.664Z,15.00
2022-12-25T11:09:31.497Z,10.70
2022-12-25T11:12:03.685Z,10.00
2022-12-25T11:14:35.311Z,10.40
2022-12-25T11:17:19.523Z,9.40
2022-12-25T11:19:56.967Z,7.90
2022-12-25T11:22:29.553Z,8.10
2022-12-25T11:25:14.575Z,8.90
2022-12-25T11:27:51.861Z,8.80
2022-12-25T11:30:25.449Z,8.90
2022-12-25T11:32:59.902Z,9.70
2022-12-25T11:35:38.407Z,8.00
2022-12-25T11:38:11.992Z,8.20
2022-12-25T11:40:48.732Z,8.50
2022-12-25T11:43:24.831Z,8.20
2022-12-25T11:46:00.687Z,6.70
2022-12-25T11:48:38.013Z,7.30
2022-12-25T11:51:12.736Z,5.10
2022-12-25T11:53:49.543Z,5.50
2022-12-25T11:56:22.930Z,4.80
2022-12-25T11:58:58.021Z,4.70
2022-12-25T12:01:36.559Z,5.40
2022-12-25T12:04:15.040Z,6.70
2022-12-25T12:06:53.033Z,6.10
2022-12-25T12:09:38.027Z,6.40
2022-12-25T12:12:15.724Z,5.80
2022-12-25T12:14:54.737Z,5.80
2022-12-25T12:17:26.544Z,7.00
2022-12-25T12:19:58.921Z,6.90
2022-12-25T12:22:31.152Z,6.60
2022-12-25T12:25:06.800Z,6.80
2022-12-25T12:27:40.816Z,6.30
2022-12-25T12:30:27.906Z,5.80
2022-12-25T12:33:02.113Z,6.40
2022-12-25T12:35:36.218Z,7.60
2022-12-25T12:38:12.895Z,7.00
2022-12-25T12:40:52.547Z,7.60
2022-12-25T12:43:33.238Z,7.90
2022-12-25T12:46:09.379Z,7.40
2022-12-25T12:48:44.583Z,6.70
2022-12-25T12:51:29.268Z,7.60
2022-12-25T12:54:21.308Z,7.70
2022-12-25T12:57:01.185Z,6.80
2022-12-25T12:59:43.547Z,6.60
2022-12-25T13:02:49.562Z,7.30
2022-12-25T13:05:34.407Z,7.50
2022-12-25T13:08:21.345Z,6.50
2022-12-25T13:11:04.078Z,6.80
2022-12-25T13:13:41.049Z,6.60
2022-12-25T13:16:23.768Z,5.70
2022-12-25T13:18:57.367Z,6.30
2022-12-25T13:21:30.403Z,6.90
2022-12-25T13:24:04.315Z,6.50
2022-12-25T13:26:36.725Z,6.60
2022-12-25T13:29:19.740Z,7.10
2022-12-25T13:31:51.390Z,7.60
2022-12-25T13:34:29.556Z,8.50
2022-12-25T13:37:06.990Z,7.60
2022-12-25T13:39:40.577Z,8.60
2022-12-25T13:42:16.591Z,8.70
2022-12-25T13:44:50.697Z,10.80
2022-12-25T13:47:32.919Z,9.40
2022-12-25T13:50:17.791Z,10.80
2022-12-25T13:52:50.068Z,11.70
2022-12-25T13:55:24.503Z,11.40
2022-12-25T13:57:59.087Z,10.40
2022-12-25T14:00:39.682Z,10.50
2022-12-25T14:03:19.645Z,11.70
2022-12-25T14:05:58.776Z,11.10
2022-12-25T14:08:32.590Z,13.80
2022-12-25T14:11:07.185Z,13.40
2022-12-25T14:13:42.480Z,13.10
2022-12-25T14:16:16.766Z,13.80
2022-12-25T14:18:55.945Z,16.10
2022-12-25T14:21:32.507Z,18.00
2022-12-25T14:24:04.440Z,18.50
2022-12-25T14:26:36.421Z,16.10
2022-12-25T14:29:17.848Z,15.60
2022-12-25T14:31:51.106Z,15.30
2022-12-25T14:34:25.569Z,16.80
2022-12-25T14:36:57.845Z,13.60
2022-12-25T14:39:37.249Z,13.70
2022-12-25T14:42:20.388Z,12.40
2022-12-25T14:45:05.194Z,12.90
2022-12-25T14:47:51.616Z,13.20
2022-12-25T14:50:31.741Z,11.90
2022-12-25T14:53:03.734Z,13.70
2022-12-25T14:55:35.679Z,12.80
2022-12-25T14:58:22.797Z,13.20
2022-12-25T15:00:58.613Z,13.20
2022-12-25T15:03:33.481Z,15.80
2022-12-25T15:06:07.402Z,14.30
2022-12-25T15:08:39.166Z,17.20
2022-12-25T15:11:11.361Z,18.20
2022-12-25T15:13:43.148Z,18.60
2022-12-25T15:16:19.548Z,17.60
2022-12-25T15:18:52.901Z,21.90
2022-12-25T15:21:28.306Z,21.50
2022-12-25T15:24:01.132Z,20.50
2022-12-25T15:26:33.872Z,21.60
2022-12-25T15:29:06.189Z,22.40
2022-12-25T15:31:40.336Z,23.40
2022-12-25T15:34:23.596Z,22.40
2022-12-25T15:36:55.984Z,21.50
2022-12-25T15:39:27.647Z,21.50
2022-12-25T15:42:12.759Z,22.20
2022-12-25T15:44:45.410Z,21.90
2022-12-25T15:47:20.002Z,21.80
2022-12-25T15:49:51.798Z,20.00
2022-12-25T15:52:23.461Z,22.70
2022-12-25T15:54:55.068Z,23.40
2022-12-25T15:57:27.025Z,21.10
2022-12-25T15:59:58.821Z,21.90
2022-12-25T16:02:30.665Z,23.50
2022-12-25T16:05:09.947Z,25.80
2022-12-25T16:07:42.409Z,26.80
2022-12-25T16:10:19.215Z,27.30
2022-12-25T16:12:51.120Z,26.30
2022-12-25T16:15:22.756Z,27.30
2022-12-25T16:17:54.424Z,28.80
2022-12-25T16:20:26.075Z,29.10
2022-12-25T16:22:57.873Z,29.00
2022-12-25T16:25:29.550Z,26.40
2022-12-25T16:28:03.563Z,29.70
2022-12-25T16:30:35.502Z,29.20
2022-12-25T16:33:08.189Z,30.00
2022-12-25T16:35:39.790Z,28.20
2022-12-25T16:38:11.974Z,27.20
2022-12-25T16:40:44.415Z,26.50
2022-12-25T16:43:21.940Z,27.50
2022-12-25T16:45:57.387Z,28.70
2022-12-25T16:50:59.577Z,25.60
2022-12-25T16:53:32.618Z,29.40
2022-12-25T16:56:09.879Z,29.10
2022-12-25T16:58:42.780Z,33.10
2022-12-25T17:01:16.113Z,31.10
2022-12-25T17:03:48.475Z,31.10
2022-12-25T17:06:22.965Z,31.20
2022-12-25T17:08:58.312Z,30.50
2022-12-25T17:11:30.957Z,33.40
2022-12-25T17:14:05.314Z,33.50
2022-12-25T17:16:38.999Z,33.40
2022-12-25T17:19:18.590Z,36.10
2022-12-25T17:21:50.263Z,30.30
2022-12-25T17:24:22.386Z,33.90
2022-12-25T17:26:53.975Z,36.80
2022-12-25T17:29:26.091Z,36.10
2022-12-25T17:31:57.703Z,36.30
2022-12-25T17:34:29.335Z,37.80
2022-12-25T17:37:00.971Z,34.10
2022-12-25T17:39:33.041Z,37.90
2022-12-25T17:42:05.106Z,38.20
2022-12-25T17:44:36.728Z,38.20
2022-12-25T17:47:08.725Z,38.20
2022-12-25T17:49:40.521Z,38.40
2022-12-25T17:52:12.145Z,40.30
2022-12-25T17:54:44.043Z,38.10
2022-12-25T17:57:15.650Z,38.50
2022-12-25T17:59:47.282Z,40.20
2022-12-25T18:02:19.039Z,42.00
2022-12-25T18:04:51.266Z,37.50
2022-12-25T18:07:23.112Z,37.20
2022-12-25T18:09:54.914Z,37.90
2022-12-25T18:12:27.639Z,37.10
2022-12-25T18:15:00.015Z,36.10
2022-12-25T18:17:32.435Z,35.50
2022-12-25T18:20:04.315Z,42.20
2022-12-25T18:22:37.610Z,45.10
2022-12-25T18:25:10.891Z,43.20
2022-12-25T18:27:42.580Z,44.60
2022-12-25T18:30:14.952Z,45.00
2022-12-25T18:32:46.763Z,44.60
2022-12-25T18:35:18.503Z,46.20
2022-12-25T18:37:50.151Z,45.20
2022-12-25T18:40:21.914Z,44.30
2022-12-25T18:42:57.801Z,41.40
2022-12-25T18:45:34.512Z,41.50
2022-12-25T18:48:07.539Z,40.20
2022-12-25T18:50:41.244Z,36.80
2022-12-25T18:53:12.886Z,35.00
2022-12-25T18:55:44.523Z,35.50
2022-12-25T18:58:16.280Z,33.60
2022-12-25T19:00:47.991Z,43.90
2022-12-25T19:03:22.829Z,38.10
2022-12-25T19:05:54.862Z,40.60
2022-12-25T19:08:27.253Z,40.30
2022-12-25T19:10:59.038Z,40.20
2022-12-25T19:13:31.124Z,37.90
2022-12-25T19:16:04.193Z,38.10
2022-12-25T19:18:36.561Z,38.60
2022-12-25T19:21:10.443Z,38.10
2022-12-25T19:23:42.771Z,38.20
2022-12-25T19:26:16.142Z,39.40
2022-12-25T19:28:49.670Z,40.80
2022-12-25T19:31:22.168Z,40.70
2022-12-25T19:33:54.539Z,44.30
2022-12-25T19:36:26.462Z,44.60
2022-12-25T19:38:59.089Z,40.40
2022-12-25T19:41:30.905Z,38.70
2022-12-25T19:44:03.107Z,35.10
2022-12-25T19:46:36.795Z,36.20
2022-12-25T19:51:42.411Z,40.10
2022-12-25T19:54:17.261Z,27.80
2022-12-25T19:56:49.482Z,30.00
2022-12-25T19:59:21.137Z,32.50
2022-12-25T20:01:52.956Z,31.70
2022-12-25T20:04:24.779Z,30.10
2022-12-25T20:06:56.477Z,32.40
2022-12-25T20:09:28.157Z,38.20
2022-12-25T20:11:59.903Z,36.10
2022-12-25T20:14:31.533Z,33.30
2022-12-25T20:17:03.250Z,33.60
2022-12-25T20:19:35.065Z,29.20
2022-12-25T20:22:06.753Z,32.50
2022-12-25T20:24:38.517Z,29.80
2022-12-25T20:27:10.214Z,30.50
2022-12-25T20:29:41.823Z,32.40
2022-12-25T20:32:13.618Z,33.20
2022-12-25T20:34:45.658Z,41.70
2022-12-25T20:37:17.319Z,41.00
2022-12-25T20:39:48.903Z,38.00
2022-12-25T20:42:20.602Z,35.00
2022-12-25T20:44:52.366Z,37.20
2022-12-25T20:47:24.255Z,34.60
2022-12-25T20:49:56.396Z,35.50
2022-12-25T20:52:28.507Z,34.70
2022-12-25T20:55:00.066Z,36.50
2022-12-25T20:57:31.877Z,33.10
2022-12-25T21:00:05.051Z,34.50
2022-12-25T21:02:37.898Z,34.10
2022-12-25T21:05:12.438Z,35.50
2022-12-25T21:07:44.077Z,35.30
2022-12-25T21:10:15.715Z,33.70
2022-12-25T21:12:47.348Z,33.80
2022-12-25T21:15:19.354Z,32.20
2022-12-25T21:17:50.967Z,31.20
2022-12-25T21:20:22.593Z,32.10
2022-12-25T21:22:54.227Z,31.70
2022-12-25T21:25:25.815Z,29.30
2022-12-25T21:27:57.437Z,29.60
2022-12-25T21:30:29.151Z,27.80
2022-12-25T21:33:18.509Z,28.10
2022-12-25T21:35:50.171Z,29.80
2022-12-25T21:38:22.148Z,31.00
2022-12-25T21:40:53.819Z,30.80
2022-12-25T21:43:25.535Z,34.50
2022-12-25T21:45:57.203Z,34.40
2022-12-25T21:48:28.910Z,33.10
2022-12-25T21:51:23.662Z,33.30
2022-12-25T21:53:55.267Z,33.40
2022-12-25T21:56:28.487Z,32.90
2022-12-25T21:59:01.291Z,31.70
2022-12-25T22:01:33.637Z,33.20
2022-12-25T22:04:06.988Z,31.10
2022-12-25T22:06:56.219Z,30.30
2022-12-25T22:09:27.783Z,28.40
2022-12-25T22:12:17.204Z,30.20
2022-12-25T22:14:57.047Z,27.40
2022-12-25T22:17:48.722Z,27.30
2022-12-25T22:20:22.396Z,26.10
2022-12-25T22:22:54.764Z,28.30
2022-12-25T22:25:27.303Z,28.70
2022-12-25T22:27:59.258Z,30.00
2022-12-25T22:30:32.310Z,32.00
2022-12-25T22:33:04.147Z,30.80
2022-12-25T22:35:35.729Z,31.50
2022-12-25T22:38:07.354Z,30.10
2022-12-25T22:40:38.962Z,31.20
2022-12-25T22:43:10.609Z,30.20
2022-12-25T22:45:42.245Z,29.40
2022-12-25T22:48:13.868Z,26.50
2022-12-25T22:50:45.504Z,27.20
2022-12-25T22:53:17.312Z,27.10
2022-12-25T22:55:49.951Z,26.60
2022-12-25T22:58:21.579Z,25.40
2022-12-25T23:00:53.270Z,25.30
2022-12-25T23:03:25.049Z,26.80
2022-12-25T23:05:57.794Z,28.70
2022-12-25T23:08:29.436Z,28.50
2022-12-25T23:11:05.508Z,28.60
2022-12-25T23:13:55.682Z,30.30
2022-12-25T23:16:27.849Z,29.10
2022-12-25T23:19:17.634Z,30.80
2022-12-25T23:22:07.120Z,29.20
2022-12-25T23:24:56.620Z,30.50
2022-12-25T23:27:28.272Z,30.10
2022-12-25T23:29:59.883Z,29.00
2022-12-25T23:32:32.180Z,27.10
2022-12-25T23:35:04.206Z,29.60
2022-12-25T23:37:36.001Z,27.70
2022-12-25T23:40:10.328Z,27.50
2022-12-25T23:42:43.170Z,26.80
2022-12-25T23:45:15.026Z,26.90
2022-12-25T23:47:46.812Z,26.70
2022-12-25T23:50:18.488Z,27.80
2022-12-25T23:52:50.093Z,29.10
2022-12-25T23:55:21.688Z,29.50
2022-12-25T23:57:53.262Z,30.00
